sensor_id;sensor_type;location;lat;lon;timestamp;P1;durP1;ratioP1;P2;durP2;ratioP2
18780;SDS011;9519;51.890;8.970;2023-04-25T00:02:47;23.53;;;12.43;;
18780;SDS011;9519;51.890;8.970;2023-04-25T00:07:50;22.60;;;9.17;;
18780;SDS011;9519;51.890;8.970;2023-04-25T00:12:53;24.40;;;10.07;;
18780;SDS011;9519;51.890;8.970;2023-04-25T00:17:55;19.07;;;9.67;;
18780;SDS011;9519;51.890;8.970;2023-04-25T00:22:58;21.30;;;9.33;;
18780;SDS011;9519;51.890;8.970;2023-04-25T00:28:00;22.93;;;12.27;;
18780;SDS011;9519;51.890;8.970;2023-04-25T00:33:02;26.50;;;11.60;;
18780;SDS011;9519;51.890;8.970;2023-04-25T00:38:06;32.37;;;13.63;;
18780;SDS011;9519;51.890;8.970;2023-04-25T00:43:09;24.00;;;11.67;;
18780;SDS011;9519;51.890;8.970;2023-04-25T00:48:11;34.13;;;16.27;;
18780;SDS011;9519;51.890;8.970;2023-04-25T00:53:16;24.93;;;11.87;;
18780;SDS011;9519;51.890;8.970;2023-04-25T00:58:18;21.30;;;11.77;;
18780;SDS011;9519;51.890;8.970;2023-04-25T01:03:22;36.97;;;16.93;;
18780;SDS011;9519;51.890;8.970;2023-04-25T01:08:26;30.17;;;17.13;;
18780;SDS011;9519;51.890;8.970;2023-04-25T01:13:28;37.93;;;19.87;;
18780;SDS011;9519;51.890;8.970;2023-04-25T01:18:32;22.67;;;12.83;;
18780;SDS011;9519;51.890;8.970;2023-04-25T01:23:35;30.57;;;13.43;;
18780;SDS011;9519;51.890;8.970;2023-04-25T01:28:38;20.40;;;10.27;;
18780;SDS011;9519;51.890;8.970;2023-04-25T01:33:41;19.27;;;11.30;;
18780;SDS011;9519;51.890;8.970;2023-04-25T01:38:45;34.80;;;19.23;;
18780;SDS011;9519;51.890;8.970;2023-04-25T01:43:47;43.43;;;21.33;;
18780;SDS011;9519;51.890;8.970;2023-04-25T01:48:50;32.17;;;19.03;;
18780;SDS011;9519;51.890;8.970;2023-04-25T01:53:54;40.70;;;25.47;;
18780;SDS011;9519;51.890;8.970;2023-04-25T01:58:58;49.00;;;31.47;;
18780;SDS011;9519;51.890;8.970;2023-04-25T02:04:00;40.63;;;24.53;;
18780;SDS011;9519;51.890;8.970;2023-04-25T02:09:03;45.37;;;31.77;;
18780;SDS011;9519;51.890;8.970;2023-04-25T02:14:05;49.37;;;27.43;;
18780;SDS011;9519;51.890;8.970;2023-04-25T02:19:07;33.37;;;19.47;;
18780;SDS011;9519;51.890;8.970;2023-04-25T02:24:11;27.63;;;16.67;;
18780;SDS011;9519;51.890;8.970;2023-04-25T02:29:13;23.30;;;16.07;;
18780;SDS011;9519;51.890;8.970;2023-04-25T02:34:15;22.90;;;14.37;;
18780;SDS011;9519;51.890;8.970;2023-04-25T02:39:19;24.87;;;13.47;;
18780;SDS011;9519;51.890;8.970;2023-04-25T02:44:22;18.20;;;11.70;;
18780;SDS011;9519;51.890;8.970;2023-04-25T02:49:24;17.50;;;10.93;;
18780;SDS011;9519;51.890;8.970;2023-04-25T02:54:27;20.50;;;11.97;;
18780;SDS011;9519;51.890;8.970;2023-04-25T02:59:29;20.90;;;11.20;;
18780;SDS011;9519;51.890;8.970;2023-04-25T03:04:31;14.17;;;9.23;;
18780;SDS011;9519;51.890;8.970;2023-04-25T03:09:35;13.50;;;7.47;;
18780;SDS011;9519;51.890;8.970;2023-04-25T03:14:37;14.83;;;6.40;;
18780;SDS011;9519;51.890;8.970;2023-04-25T03:19:39;10.80;;;5.70;;
18780;SDS011;9519;51.890;8.970;2023-04-25T03:24:43;14.10;;;5.97;;
18780;SDS011;9519;51.890;8.970;2023-04-25T03:29:45;15.67;;;6.43;;
18780;SDS011;9519;51.890;8.970;2023-04-25T03:34:47;21.80;;;5.80;;
18780;SDS011;9519;51.890;8.970;2023-04-25T03:39:51;23.20;;;7.67;;
18780;SDS011;9519;51.890;8.970;2023-04-25T03:44:53;18.80;;;7.17;;
18780;SDS011;9519;51.890;8.970;2023-04-25T03:49:55;22.80;;;6.83;;
18780;SDS011;9519;51.890;8.970;2023-04-25T03:54:58;23.73;;;7.43;;
18780;SDS011;9519;51.890;8.970;2023-04-25T04:00:00;22.80;;;7.37;;
18780;SDS011;9519;51.890;8.970;2023-04-25T04:05:04;25.07;;;6.60;;
18780;SDS011;9519;51.890;8.970;2023-04-25T04:10:08;25.83;;;7.80;;
18780;SDS011;9519;51.890;8.970;2023-04-25T04:15:11;32.03;;;8.30;;
18780;SDS011;9519;51.890;8.970;2023-04-25T04:20:14;22.93;;;7.90;;
18780;SDS011;9519;51.890;8.970;2023-04-25T04:25:17;31.03;;;7.77;;
18780;SDS011;9519;51.890;8.970;2023-04-25T04:30:21;24.13;;;8.17;;
18780;SDS011;9519;51.890;8.970;2023-04-25T04:35:25;30.80;;;7.83;;
18780;SDS011;9519;51.890;8.970;2023-04-25T04:40:29;29.63;;;7.93;;
18780;SDS011;9519;51.890;8.970;2023-04-25T04:45:32;34.83;;;8.17;;
18780;SDS011;9519;51.890;8.970;2023-04-25T04:50:34;26.87;;;8.10;;
18780;SDS011;9519;51.890;8.970;2023-04-25T04:55:37;24.67;;;7.43;;
18780;SDS011;9519;51.890;8.970;2023-04-25T05:00:41;24.43;;;7.93;;
18780;SDS011;9519;51.890;8.970;2023-04-25T05:05:43;26.17;;;7.00;;
18780;SDS011;9519;51.890;8.970;2023-04-25T05:10:47;31.27;;;8.83;;
18780;SDS011;9519;51.890;8.970;2023-04-25T05:15:49;27.57;;;6.77;;
18780;SDS011;9519;51.890;8.970;2023-04-25T05:20:51;27.80;;;7.03;;
18780;SDS011;9519;51.890;8.970;2023-04-25T05:25:54;33.10;;;8.43;;
18780;SDS011;9519;51.890;8.970;2023-04-25T05:30:57;26.77;;;6.70;;
18780;SDS011;9519;51.890;8.970;2023-04-25T05:35:59;32.13;;;7.13;;
18780;SDS011;9519;51.890;8.970;2023-04-25T05:41:02;25.33;;;6.53;;
18780;SDS011;9519;51.890;8.970;2023-04-25T05:46:05;21.20;;;6.40;;
18780;SDS011;9519;51.890;8.970;2023-04-25T05:51:07;24.67;;;6.13;;
18780;SDS011;9519;51.890;8.970;2023-04-25T05:56:10;32.67;;;6.97;;
18780;SDS011;9519;51.890;8.970;2023-04-25T06:01:13;28.27;;;6.37;;
18780;SDS011;9519;51.890;8.970;2023-04-25T06:06:15;26.17;;;6.43;;
18780;SDS011;9519;51.890;8.970;2023-04-25T06:11:19;27.20;;;8.00;;
18780;SDS011;9519;51.890;8.970;2023-04-25T06:16:21;24.23;;;6.97;;
18780;SDS011;9519;51.890;8.970;2023-04-25T06:21:25;19.10;;;6.80;;
18780;SDS011;9519;51.890;8.970;2023-04-25T06:26:29;29.83;;;7.43;;
18780;SDS011;9519;51.890;8.970;2023-04-25T06:31:31;29.87;;;7.73;;
18780;SDS011;9519;51.890;8.970;2023-04-25T06:36:34;26.40;;;7.40;;
18780;SDS011;9519;51.890;8.970;2023-04-25T06:41:37;24.67;;;7.07;;
18780;SDS011;9519;51.890;8.970;2023-04-25T06:46:39;30.17;;;7.67;;
18780;SDS011;9519;51.890;8.970;2023-04-25T06:51:41;23.07;;;6.20;;
18780;SDS011;9519;51.890;8.970;2023-04-25T06:56:45;20.70;;;5.57;;
18780;SDS011;9519;51.890;8.970;2023-04-25T07:01:47;21.33;;;5.63;;
18780;SDS011;9519;51.890;8.970;2023-04-25T07:06:49;16.90;;;5.37;;
18780;SDS011;9519;51.890;8.970;2023-04-25T07:11:53;17.93;;;4.93;;
18780;SDS011;9519;51.890;8.970;2023-04-25T07:16:55;22.63;;;4.47;;
18780;SDS011;9519;51.890;8.970;2023-04-25T07:21:57;19.30;;;4.30;;
18780;SDS011;9519;51.890;8.970;2023-04-25T07:27:01;21.30;;;4.73;;
18780;SDS011;9519;51.890;8.970;2023-04-25T07:32:03;21.20;;;3.97;;
18780;SDS011;9519;51.890;8.970;2023-04-25T07:37:06;21.83;;;5.27;;
18780;SDS011;9519;51.890;8.970;2023-04-25T07:42:09;18.50;;;5.37;;
18780;SDS011;9519;51.890;8.970;2023-04-25T07:47:11;19.70;;;4.93;;
18780;SDS011;9519;51.890;8.970;2023-04-25T07:52:13;18.57;;;4.63;;
18780;SDS011;9519;51.890;8.970;2023-04-25T07:57:17;19.67;;;4.03;;
18780;SDS011;9519;51.890;8.970;2023-04-25T08:02:20;16.00;;;3.90;;
18780;SDS011;9519;51.890;8.970;2023-04-25T08:07:22;17.87;;;4.07;;
18780;SDS011;9519;51.890;8.970;2023-04-25T08:12:26;24.70;;;4.87;;
18780;SDS011;9519;51.890;8.970;2023-04-25T08:17:28;18.20;;;4.07;;
18780;SDS011;9519;51.890;8.970;2023-04-25T08:22:30;17.93;;;3.63;;
18780;SDS011;9519;51.890;8.970;2023-04-25T08:27:35;13.77;;;3.73;;
18780;SDS011;9519;51.890;8.970;2023-04-25T08:32:37;13.27;;;3.47;;
18780;SDS011;9519;51.890;8.970;2023-04-25T08:37:39;13.40;;;3.20;;
18780;SDS011;9519;51.890;8.970;2023-04-25T08:42:42;12.53;;;3.17;;
18780;SDS011;9519;51.890;8.970;2023-04-25T08:47:45;18.90;;;3.50;;
18780;SDS011;9519;51.890;8.970;2023-04-25T08:52:49;10.00;;;2.80;;
18780;SDS011;9519;51.890;8.970;2023-04-25T08:57:56;12.00;;;3.13;;
18780;SDS011;9519;51.890;8.970;2023-04-25T09:03:01;16.73;;;3.80;;
18780;SDS011;9519;51.890;8.970;2023-04-25T09:08:04;12.83;;;3.80;;
18780;SDS011;9519;51.890;8.970;2023-04-25T09:13:09;12.37;;;3.30;;
18780;SDS011;9519;51.890;8.970;2023-04-25T09:18:21;15.27;;;3.20;;
18780;SDS011;9519;51.890;8.970;2023-04-25T09:23:26;9.40;;;2.83;;
18780;SDS011;9519;51.890;8.970;2023-04-25T09:28:29;10.03;;;3.17;;
18780;SDS011;9519;51.890;8.970;2023-04-25T09:33:32;9.67;;;2.50;;
18780;SDS011;9519;51.890;8.970;2023-04-25T09:38:39;13.63;;;3.20;;
18780;SDS011;9519;51.890;8.970;2023-04-25T09:43:45;10.20;;;2.90;;
18780;SDS011;9519;51.890;8.970;2023-04-25T09:48:50;11.47;;;2.67;;
18780;SDS011;9519;51.890;8.970;2023-04-25T09:53:54;12.13;;;2.73;;
18780;SDS011;9519;51.890;8.970;2023-04-25T09:58:57;7.63;;;2.43;;
18780;SDS011;9519;51.890;8.970;2023-04-25T10:04:00;10.83;;;2.53;;
18780;SDS011;9519;51.890;8.970;2023-04-25T10:09:05;11.57;;;2.57;;
18780;SDS011;9519;51.890;8.970;2023-04-25T10:14:10;8.77;;;2.23;;
18780;SDS011;9519;51.890;8.970;2023-04-25T10:19:14;9.30;;;2.53;;
18780;SDS011;9519;51.890;8.970;2023-04-25T10:24:17;13.20;;;3.00;;
18780;SDS011;9519;51.890;8.970;2023-04-25T10:29:23;8.47;;;2.27;;
18780;SDS011;9519;51.890;8.970;2023-04-25T10:34:38;10.97;;;2.67;;
18780;SDS011;9519;51.890;8.970;2023-04-25T10:39:42;10.17;;;2.50;;
18780;SDS011;9519;51.890;8.970;2023-04-25T10:45:01;15.57;;;2.97;;
18780;SDS011;9519;51.890;8.970;2023-04-25T10:50:07;11.13;;;3.00;;
18780;SDS011;9519;51.890;8.970;2023-04-25T10:55:10;9.97;;;2.50;;
18780;SDS011;9519;51.890;8.970;2023-04-25T11:00:14;9.07;;;2.67;;
18780;SDS011;9519;51.890;8.970;2023-04-25T11:05:20;8.30;;;2.53;;
18780;SDS011;9519;51.890;8.970;2023-04-25T11:10:32;8.27;;;2.23;;
18780;SDS011;9519;51.890;8.970;2023-04-25T11:15:37;7.90;;;2.40;;
18780;SDS011;9519;51.890;8.970;2023-04-25T11:20:40;7.60;;;2.37;;
18780;SDS011;9519;51.890;8.970;2023-04-25T11:25:45;10.47;;;2.57;;
18780;SDS011;9519;51.890;8.970;2023-04-25T11:30:49;8.17;;;2.30;;
18780;SDS011;9519;51.890;8.970;2023-04-25T11:35:52;6.80;;;2.03;;
18780;SDS011;9519;51.890;8.970;2023-04-25T11:40:56;6.67;;;2.47;;
18780;SDS011;9519;51.890;8.970;2023-04-25T11:46:00;8.87;;;2.70;;
18780;SDS011;9519;51.890;8.970;2023-04-25T11:51:02;8.33;;;1.90;;
18780;SDS011;9519;51.890;8.970;2023-04-25T11:56:08;6.50;;;1.80;;
18780;SDS011;9519;51.890;8.970;2023-04-25T12:01:13;5.83;;;1.80;;
18780;SDS011;9519;51.890;8.970;2023-04-25T12:06:30;9.43;;;2.47;;
18780;SDS011;9519;51.890;8.970;2023-04-25T12:11:32;7.20;;;2.63;;
18780;SDS011;9519;51.890;8.970;2023-04-25T12:16:45;7.47;;;2.50;;
18780;SDS011;9519;51.890;8.970;2023-04-25T12:21:49;5.73;;;2.57;;
18780;SDS011;9519;51.890;8.970;2023-04-25T12:26:52;7.37;;;2.50;;
18780;SDS011;9519;51.890;8.970;2023-04-25T12:32:03;6.00;;;2.23;;
18780;SDS011;9519;51.890;8.970;2023-04-25T12:37:06;10.30;;;2.50;;
18780;SDS011;9519;51.890;8.970;2023-04-25T12:42:08;8.57;;;2.57;;
18780;SDS011;9519;51.890;8.970;2023-04-25T12:47:13;8.03;;;2.73;;
18780;SDS011;9519;51.890;8.970;2023-04-25T12:52:15;14.23;;;2.80;;
18780;SDS011;9519;51.890;8.970;2023-04-25T12:57:18;11.47;;;2.97;;
18780;SDS011;9519;51.890;8.970;2023-04-25T13:02:22;8.57;;;2.97;;
18780;SDS011;9519;51.890;8.970;2023-04-25T13:07:24;10.90;;;4.20;;
18780;SDS011;9519;51.890;8.970;2023-04-25T13:12:26;13.50;;;2.20;;
18780;SDS011;9519;51.890;8.970;2023-04-25T13:17:29;13.60;;;4.90;;
18780;SDS011;9519;51.890;8.970;2023-04-25T13:22:31;7.07;;;1.93;;
18780;SDS011;9519;51.890;8.970;2023-04-25T13:27:34;9.33;;;3.50;;
18780;SDS011;9519;51.890;8.970;2023-04-25T13:32:41;9.37;;;2.10;;
18780;SDS011;9519;51.890;8.970;2023-04-25T13:37:43;10.83;;;1.87;;
18780;SDS011;9519;51.890;8.970;2023-04-25T13:42:45;7.07;;;2.07;;
18780;SDS011;9519;51.890;8.970;2023-04-25T13:47:49;8.97;;;2.30;;
18780;SDS011;9519;51.890;8.970;2023-04-25T13:52:51;6.57;;;1.80;;
18780;SDS011;9519;51.890;8.970;2023-04-25T13:57:53;7.93;;;2.03;;
18780;SDS011;9519;51.890;8.970;2023-04-25T14:02:57;6.20;;;2.10;;
18780;SDS011;9519;51.890;8.970;2023-04-25T14:07:59;3.70;;;1.57;;
18780;SDS011;9519;51.890;8.970;2023-04-25T14:13:01;5.10;;;1.60;;
18780;SDS011;9519;51.890;8.970;2023-04-25T14:18:05;6.20;;;1.53;;
18780;SDS011;9519;51.890;8.970;2023-04-25T14:23:07;7.70;;;1.57;;
18780;SDS011;9519;51.890;8.970;2023-04-25T14:28:10;5.57;;;1.90;;
18780;SDS011;9519;51.890;8.970;2023-04-25T14:33:13;6.53;;;1.90;;
18780;SDS011;9519;51.890;8.970;2023-04-25T14:38:15;5.00;;;1.50;;
18780;SDS011;9519;51.890;8.970;2023-04-25T14:43:17;5.13;;;1.30;;
18780;SDS011;9519;51.890;8.970;2023-04-25T14:48:21;7.30;;;1.83;;
18780;SDS011;9519;51.890;8.970;2023-04-25T14:53:23;6.87;;;3.00;;
18780;SDS011;9519;51.890;8.970;2023-04-25T14:58:25;9.60;;;4.63;;
18780;SDS011;9519;51.890;8.970;2023-04-25T15:03:29;4.43;;;1.50;;
18780;SDS011;9519;51.890;8.970;2023-04-25T15:08:31;6.40;;;1.57;;
18780;SDS011;9519;51.890;8.970;2023-04-25T15:13:33;11.90;;;5.67;;
18780;SDS011;9519;51.890;8.970;2023-04-25T15:18:37;8.00;;;2.53;;
18780;SDS011;9519;51.890;8.970;2023-04-25T15:23:39;5.87;;;1.70;;
18780;SDS011;9519;51.890;8.970;2023-04-25T15:28:41;9.17;;;4.50;;
18780;SDS011;9519;51.890;8.970;2023-04-25T15:33:45;6.00;;;2.00;;
18780;SDS011;9519;51.890;8.970;2023-04-25T15:38:47;3.73;;;1.40;;
18780;SDS011;9519;51.890;8.970;2023-04-25T15:43:49;7.07;;;2.63;;
18780;SDS011;9519;51.890;8.970;2023-04-25T15:48:55;8.13;;;2.40;;
18780;SDS011;9519;51.890;8.970;2023-04-25T15:53:57;5.17;;;1.30;;
18780;SDS011;9519;51.890;8.970;2023-04-25T15:58:59;7.43;;;1.80;;
18780;SDS011;9519;51.890;8.970;2023-04-25T16:04:03;5.17;;;1.73;;
18780;SDS011;9519;51.890;8.970;2023-04-25T16:09:06;4.30;;;1.50;;
18780;SDS011;9519;51.890;8.970;2023-04-25T16:14:09;6.30;;;1.77;;
18780;SDS011;9519;51.890;8.970;2023-04-25T16:19:12;4.60;;;1.50;;
18780;SDS011;9519;51.890;8.970;2023-04-25T16:24:15;7.73;;;2.40;;
18780;SDS011;9519;51.890;8.970;2023-04-25T16:29:17;7.60;;;1.50;;
18780;SDS011;9519;51.890;8.970;2023-04-25T16:34:20;4.37;;;1.53;;
18780;SDS011;9519;51.890;8.970;2023-04-25T16:39:23;10.83;;;2.27;;
18780;SDS011;9519;51.890;8.970;2023-04-25T16:44:25;7.13;;;1.63;;
18780;SDS011;9519;51.890;8.970;2023-04-25T16:49:28;5.93;;;1.67;;
18780;SDS011;9519;51.890;8.970;2023-04-25T16:54:31;6.33;;;1.77;;
18780;SDS011;9519;51.890;8.970;2023-04-25T17:05:52;4.17;;;1.73;;
18780;SDS011;9519;51.890;8.970;2023-04-25T17:10:55;6.93;;;1.90;;
18780;SDS011;9519;51.890;8.970;2023-04-25T17:15:59;5.07;;;2.00;;
18780;SDS011;9519;51.890;8.970;2023-04-25T17:21:02;7.63;;;1.93;;
18780;SDS011;9519;51.890;8.970;2023-04-25T17:26:09;7.73;;;3.10;;
18780;SDS011;9519;51.890;8.970;2023-04-25T17:31:11;8.47;;;2.30;;
18780;SDS011;9519;51.890;8.970;2023-04-25T17:36:14;7.00;;;2.40;;
18780;SDS011;9519;51.890;8.970;2023-04-25T17:41:17;9.37;;;2.47;;
18780;SDS011;9519;51.890;8.970;2023-04-25T17:46:19;7.73;;;2.53;;
18780;SDS011;9519;51.890;8.970;2023-04-25T17:51:23;8.10;;;2.47;;
18780;SDS011;9519;51.890;8.970;2023-04-25T17:56:25;9.90;;;4.30;;
18780;SDS011;9519;51.890;8.970;2023-04-25T18:01:28;8.50;;;3.63;;
18780;SDS011;9519;51.890;8.970;2023-04-25T18:06:31;8.77;;;2.80;;
18780;SDS011;9519;51.890;8.970;2023-04-25T18:11:33;11.87;;;4.23;;
18780;SDS011;9519;51.890;8.970;2023-04-25T18:16:35;7.97;;;3.80;;
18780;SDS011;9519;51.890;8.970;2023-04-25T18:21:39;6.93;;;2.87;;
18780;SDS011;9519;51.890;8.970;2023-04-25T18:26:42;8.23;;;4.13;;
18780;SDS011;9519;51.890;8.970;2023-04-25T18:31:45;6.67;;;2.70;;
18780;SDS011;9519;51.890;8.970;2023-04-25T18:36:49;8.70;;;3.40;;
18780;SDS011;9519;51.890;8.970;2023-04-25T18:41:54;7.70;;;3.23;;
18780;SDS011;9519;51.890;8.970;2023-04-25T18:46:57;7.30;;;2.87;;
18780;SDS011;9519;51.890;8.970;2023-04-25T18:52:01;11.43;;;3.80;;
18780;SDS011;9519;51.890;8.970;2023-04-25T18:57:04;6.67;;;2.13;;
18780;SDS011;9519;51.890;8.970;2023-04-25T19:02:06;10.70;;;3.13;;
18780;SDS011;9519;51.890;8.970;2023-04-25T19:07:10;5.83;;;2.50;;
18780;SDS011;9519;51.890;8.970;2023-04-25T19:12:13;7.13;;;2.27;;
18780;SDS011;9519;51.890;8.970;2023-04-25T19:17:16;8.97;;;2.43;;
18780;SDS011;9519;51.890;8.970;2023-04-25T19:22:19;7.23;;;2.37;;
18780;SDS011;9519;51.890;8.970;2023-04-25T19:27:21;8.37;;;3.03;;
18780;SDS011;9519;51.890;8.970;2023-04-25T19:32:26;8.83;;;3.50;;
18780;SDS011;9519;51.890;8.970;2023-04-25T19:37:32;10.93;;;3.83;;
18780;SDS011;9519;51.890;8.970;2023-04-25T19:42:34;7.43;;;2.90;;
18780;SDS011;9519;51.890;8.970;2023-04-25T19:47:36;8.27;;;2.77;;
18780;SDS011;9519;51.890;8.970;2023-04-25T19:52:40;12.87;;;3.77;;
18780;SDS011;9519;51.890;8.970;2023-04-25T19:57:42;7.70;;;3.20;;
18780;SDS011;9519;51.890;8.970;2023-04-25T20:02:44;6.37;;;2.80;;
18780;SDS011;9519;51.890;8.970;2023-04-25T20:07:48;9.77;;;3.50;;
18780;SDS011;9519;51.890;8.970;2023-04-25T20:12:50;9.60;;;3.20;;
18780;SDS011;9519;51.890;8.970;2023-04-25T20:17:53;6.43;;;2.40;;
18780;SDS011;9519;51.890;8.970;2023-04-25T20:22:57;8.40;;;2.40;;
18780;SDS011;9519;51.890;8.970;2023-04-25T20:27:59;7.10;;;1.97;;
18780;SDS011;9519;51.890;8.970;2023-04-25T20:33:01;9.27;;;2.30;;
18780;SDS011;9519;51.890;8.970;2023-04-25T20:38:04;8.03;;;2.10;;
18780;SDS011;9519;51.890;8.970;2023-04-25T20:43:07;13.30;;;3.03;;
18780;SDS011;9519;51.890;8.970;2023-04-25T20:48:11;5.93;;;2.00;;
18780;SDS011;9519;51.890;8.970;2023-04-25T20:53:15;8.73;;;2.57;;
18780;SDS011;9519;51.890;8.970;2023-04-25T20:58:17;11.73;;;2.70;;
18780;SDS011;9519;51.890;8.970;2023-04-25T21:03:19;7.43;;;2.53;;
18780;SDS011;9519;51.890;8.970;2023-04-25T21:08:23;9.13;;;2.37;;
18780;SDS011;9519;51.890;8.970;2023-04-25T21:13:25;6.00;;;2.10;;
18780;SDS011;9519;51.890;8.970;2023-04-25T21:18:28;9.70;;;2.47;;
18780;SDS011;9519;51.890;8.970;2023-04-25T21:23:32;6.60;;;2.00;;
18780;SDS011;9519;51.890;8.970;2023-04-25T21:28:34;8.23;;;2.23;;
18780;SDS011;9519;51.890;8.970;2023-04-25T21:33:36;9.33;;;2.27;;
18780;SDS011;9519;51.890;8.970;2023-04-25T21:38:40;7.43;;;2.67;;
18780;SDS011;9519;51.890;8.970;2023-04-25T21:43:42;8.60;;;2.37;;
18780;SDS011;9519;51.890;8.970;2023-04-25T21:48:44;7.17;;;3.07;;
18780;SDS011;9519;51.890;8.970;2023-04-25T21:53:47;8.43;;;2.53;;
18780;SDS011;9519;51.890;8.970;2023-04-25T21:58:49;9.97;;;2.50;;
18780;SDS011;9519;51.890;8.970;2023-04-25T22:03:51;10.33;;;2.33;;
18780;SDS011;9519;51.890;8.970;2023-04-25T22:08:55;10.43;;;2.80;;
18780;SDS011;9519;51.890;8.970;2023-04-25T22:13:57;10.57;;;2.53;;
18780;SDS011;9519;51.890;8.970;2023-04-25T22:19:00;8.77;;;3.00;;
18780;SDS011;9519;51.890;8.970;2023-04-25T22:24:04;9.10;;;2.17;;
18780;SDS011;9519;51.890;8.970;2023-04-25T22:29:07;9.23;;;2.70;;
18780;SDS011;9519;51.890;8.970;2023-04-25T22:34:09;10.70;;;2.77;;
18780;SDS011;9519;51.890;8.970;2023-04-25T22:39:13;10.63;;;2.73;;
18780;SDS011;9519;51.890;8.970;2023-04-25T22:44:16;10.00;;;2.33;;
18780;SDS011;9519;51.890;8.970;2023-04-25T22:49:18;7.87;;;2.60;;
18780;SDS011;9519;51.890;8.970;2023-04-25T22:54:21;9.67;;;2.30;;
18780;SDS011;9519;51.890;8.970;2023-04-25T22:59:24;7.43;;;2.63;;
18780;SDS011;9519;51.890;8.970;2023-04-25T23:04:26;8.57;;;1.93;;
18780;SDS011;9519;51.890;8.970;2023-04-25T23:09:29;11.97;;;2.50;;
18780;SDS011;9519;51.890;8.970;2023-04-25T23:14:32;13.63;;;2.40;;
18780;SDS011;9519;51.890;8.970;2023-04-25T23:19:34;12.30;;;2.57;;
18780;SDS011;9519;51.890;8.970;2023-04-25T23:24:37;8.20;;;2.33;;
18780;SDS011;9519;51.890;8.970;2023-04-25T23:29:39;8.73;;;3.10;;
18780;SDS011;9519;51.890;8.970;2023-04-25T23:34:41;10.17;;;3.60;;
18780;SDS011;9519;51.890;8.970;2023-04-25T23:39:47;7.43;;;2.90;;
18780;SDS011;9519;51.890;8.970;2023-04-25T23:44:50;7.87;;;3.80;;
18780;SDS011;9519;51.890;8.970;2023-04-25T23:49:52;11.60;;;4.10;;
18780;SDS011;9519;51.890;8.970;2023-04-25T23:54:55;15.33;;;5.40;;
18780;SDS011;9519;51.890;8.970;2023-04-25T23:59:58;11.03;;;4.50;;
